Orlando, Florida
Current Conditions -  °F | °C
As of 5:53 AM on Tuesday 21 Oct 2014 (Local Time) from KORL Reporting Station
Clear Clear  
Wind Chill: 72°   Ceiling: Unl
Heat Index: 72°   Visibility: 10mi
Dew Point: 67°   Wind: 0mph
Humidity: 84%   Direction: NA
Pressure: 29.94"   Gusts: NA
Location:  28.54°N, 81.38°W
Report Text: KORL 210953Z AUTO 00000KT 10SM CLR 22/19 A2994 RMK AO2 SLP141 T02220194
Loading
Personal Weather Stations






























Interactive Weather Map
Tropical Storm Tracking
New forecast layout! Learn more

10-Day Weather Forecast

Advertisements
Track Severe Weather on mobile